createdAt,value
2019-02-03T00:01:44.335Z,21.27
2019-02-03T00:04:13.406Z,23.67
2019-02-03T00:06:41.731Z,22.30
2019-02-03T00:09:20.032Z,23.77
2019-02-03T00:11:49.902Z,24.10
2019-02-03T00:14:19.182Z,25.67
2019-02-03T00:16:55.246Z,25.23
2019-02-03T00:19:28.668Z,23.47
2019-02-03T00:21:59.239Z,25.30
2019-02-03T00:24:28.197Z,25.47
2019-02-03T00:26:56.883Z,27.53
2019-02-03T00:29:24.428Z,28.47
2019-02-03T00:31:53.661Z,26.17
2019-02-03T00:34:26.817Z,24.57
2019-02-03T00:36:55.202Z,27.73
2019-02-03T00:39:22.652Z,26.60
2019-02-03T00:41:52.566Z,22.67
2019-02-03T00:44:21.035Z,25.17
2019-02-03T00:46:48.698Z,28.63
2019-02-03T00:49:17.103Z,27.30
2019-02-03T00:51:48.495Z,28.30
2019-02-03T00:54:16.951Z,22.10
2019-02-03T00:56:47.411Z,23.47
2019-02-03T00:59:15.212Z,22.27
2019-02-03T01:01:43.969Z,23.97
2019-02-03T01:04:34.754Z,24.70
2019-02-03T01:07:04.314Z,21.70
2019-02-03T01:09:33.742Z,23.87
2019-02-03T01:12:01.730Z,24.40
2019-02-03T01:14:30.163Z,21.83
2019-02-03T01:16:57.485Z,21.97
2019-02-03T01:19:25.442Z,23.43
2019-02-03T01:21:56.222Z,23.47
2019-02-03T01:24:25.326Z,22.13
2019-02-03T01:26:53.688Z,22.67
2019-02-03T01:29:21.043Z,19.33
2019-02-03T01:31:49.391Z,22.10
2019-02-03T01:34:17.315Z,20.70
2019-02-03T01:36:45.395Z,41.47
2019-02-03T01:39:12.711Z,21.93
2019-02-03T01:41:39.987Z,20.13
2019-02-03T01:44:07.262Z,21.63
2019-02-03T01:46:34.598Z,22.73
2019-02-03T01:49:02.174Z,18.80
2019-02-03T01:51:29.814Z,21.13
2019-02-03T01:53:57.055Z,21.60
2019-02-03T01:56:24.316Z,20.20
2019-02-03T01:58:51.572Z,20.70
2019-02-03T02:01:18.898Z,20.33
2019-02-03T02:03:46.190Z,22.23
2019-02-03T02:06:13.552Z,23.10
2019-02-03T02:08:41.097Z,25.17
2019-02-03T02:11:08.330Z,23.30
2019-02-03T02:13:35.675Z,23.20
2019-02-03T02:16:03.026Z,25.83
2019-02-03T02:18:30.355Z,24.93
2019-02-03T02:20:57.603Z,26.17
2019-02-03T02:23:24.869Z,24.83
2019-02-03T02:25:52.583Z,25.60
2019-02-03T02:28:19.950Z,26.80
2019-02-03T02:30:47.307Z,28.87
2019-02-03T02:33:14.529Z,31.07
2019-02-03T02:35:41.868Z,25.63
2019-02-03T02:38:09.562Z,26.80
2019-02-03T02:40:40.330Z,28.93
2019-02-03T02:43:07.619Z,30.33
2019-02-03T02:45:34.985Z,31.77
2019-02-03T02:48:02.264Z,30.00
2019-02-03T02:50:38.354Z,28.30
2019-02-03T02:53:05.715Z,32.77
2019-02-03T02:55:33.067Z,28.93
2019-02-03T02:58:00.312Z,29.97
2019-02-03T03:00:27.666Z,30.03
2019-02-03T03:02:55.306Z,29.20
2019-02-03T03:05:22.578Z,32.50
2019-02-03T03:07:49.914Z,28.97
2019-02-03T03:10:17.988Z,29.03
2019-02-03T03:12:45.943Z,29.50
2019-02-03T03:15:14.192Z,28.93
2019-02-03T03:17:41.432Z,27.00
2019-02-03T03:20:09.735Z,29.43
2019-02-03T03:22:37.081Z,29.03
2019-02-03T03:25:05.053Z,28.27
2019-02-03T03:27:32.391Z,31.20
2019-02-03T03:29:59.667Z,26.83
2019-02-03T03:32:27.038Z,28.97
2019-02-03T03:34:54.356Z,30.07
2019-02-03T03:37:21.709Z,32.97
2019-02-03T03:39:48.951Z,33.23
2019-02-03T03:42:16.582Z,37.20
2019-02-03T03:44:43.948Z,40.50
2019-02-03T03:47:11.214Z,37.20
2019-02-03T03:49:38.551Z,35.60
2019-02-03T03:52:05.799Z,37.50
2019-02-03T03:54:33.166Z,36.63
2019-02-03T03:57:00.521Z,39.10
2019-02-03T03:59:27.748Z,38.67
2019-02-03T04:01:55.007Z,39.57
2019-02-03T04:04:22.257Z,38.63
2019-02-03T04:06:49.604Z,40.17
2019-02-03T04:09:16.976Z,37.43
2019-02-03T04:11:44.330Z,38.63
2019-02-03T04:14:12.047Z,38.67
2019-02-03T04:16:39.327Z,42.97
2019-02-03T04:19:06.660Z,41.60
2019-02-03T04:21:33.916Z,46.37
2019-02-03T04:24:01.270Z,43.83
2019-02-03T04:26:28.591Z,44.13
2019-02-03T04:28:55.946Z,41.80
2019-02-03T04:31:23.623Z,45.97
2019-02-03T04:33:50.848Z,44.47
2019-02-03T04:36:18.150Z,42.27
2019-02-03T04:38:57.193Z,44.00
2019-02-03T04:41:14.592Z,40.87
2019-02-03T04:43:41.858Z,45.93
2019-02-03T04:46:09.708Z,45.07
2019-02-03T04:48:36.949Z,46.87
2019-02-03T04:51:04.296Z,45.90
2019-02-03T04:53:31.753Z,51.83
2019-02-03T04:55:59.075Z,52.80
2019-02-03T04:58:26.344Z,54.00
2019-02-03T05:00:53.700Z,52.17
2019-02-03T05:03:21.256Z,56.87
2019-02-03T05:05:48.499Z,48.30
2019-02-03T05:08:15.845Z,51.53
2019-02-03T05:10:43.100Z,56.70
2019-02-03T05:13:10.443Z,51.07
2019-02-03T05:15:37.675Z,56.03
2019-02-03T05:18:04.911Z,57.40
2019-02-03T05:20:32.155Z,55.53
2019-02-03T05:22:59.414Z,53.63
2019-02-03T05:25:26.759Z,49.60
2019-02-03T05:27:54.056Z,47.33
2019-02-03T05:30:29.618Z,51.57
2019-02-03T05:32:56.972Z,48.67
2019-02-03T05:35:24.541Z,50.50
2019-02-03T05:37:51.881Z,50.17
2019-02-03T05:40:19.223Z,51.60
2019-02-03T05:42:46.578Z,45.83
2019-02-03T05:45:15.779Z,43.17
2019-02-03T05:47:43.023Z,41.30
2019-02-03T05:50:11.614Z,49.17
2019-02-03T05:52:38.847Z,44.40
2019-02-03T05:55:06.379Z,50.63
2019-02-03T05:57:33.624Z,44.40
2019-02-03T06:00:00.865Z,46.77
2019-02-03T06:02:28.126Z,45.33
2019-02-03T06:04:55.852Z,44.53
2019-02-03T06:07:23.564Z,52.67
2019-02-03T06:09:51.248Z,42.67
2019-02-03T06:12:18.968Z,46.07
2019-02-03T06:14:46.655Z,45.80
2019-02-03T06:17:14.406Z,46.60
2019-02-03T06:19:42.076Z,43.80
2019-02-03T06:22:09.479Z,40.53
2019-02-03T06:24:36.723Z,36.43
2019-02-03T06:27:04.080Z,42.93
2019-02-03T06:29:31.416Z,39.17
2019-02-03T06:31:58.664Z,39.37
2019-02-03T06:34:25.932Z,36.83
2019-02-03T06:36:53.724Z,38.63
2019-02-03T06:39:21.049Z,39.83
2019-02-03T06:41:48.315Z,37.97
2019-02-03T06:44:15.584Z,39.57
2019-02-03T06:46:52.327Z,36.07
2019-02-03T06:49:25.652Z,39.33
2019-02-03T06:51:52.976Z,39.13
2019-02-03T06:54:39.852Z,36.87
2019-02-03T06:57:07.187Z,36.50
2019-02-03T06:59:34.455Z,39.20
2019-02-03T07:02:02.100Z,43.03
2019-02-03T07:04:29.431Z,43.57
2019-02-03T07:06:56.768Z,42.17
2019-02-03T07:09:24.008Z,40.07
2019-02-03T07:11:51.332Z,44.33
2019-02-03T07:14:18.787Z,50.10
2019-02-03T07:16:46.158Z,53.60
2019-02-03T07:19:13.929Z,43.10
2019-02-03T07:21:41.332Z,37.83
2019-02-03T07:24:08.672Z,42.00
2019-02-03T07:26:35.923Z,39.33
2019-02-03T07:29:03.930Z,39.80
2019-02-03T07:31:31.264Z,38.73
2019-02-03T07:33:58.888Z,40.97
2019-02-03T07:36:26.135Z,40.40
2019-02-03T07:38:53.508Z,38.63
2019-02-03T07:41:20.742Z,39.13
2019-02-03T07:43:47.996Z,39.47
2019-02-03T07:46:15.258Z,39.43
2019-02-03T07:48:42.659Z,42.13
2019-02-03T07:51:10.107Z,39.53
2019-02-03T07:53:37.462Z,40.77
2019-02-03T07:56:04.805Z,39.30
2019-02-03T07:58:32.030Z,38.23
2019-02-03T08:00:59.498Z,37.53
2019-02-03T08:03:26.821Z,40.83
2019-02-03T08:05:54.179Z,38.33
2019-02-03T08:08:21.811Z,43.13
2019-02-03T08:10:49.061Z,39.47
2019-02-03T08:13:16.523Z,40.47
2019-02-03T08:15:43.783Z,45.23
2019-02-03T08:18:11.007Z,42.77
2019-02-03T08:20:38.258Z,45.27
2019-02-03T08:23:05.578Z,42.40
2019-02-03T08:25:32.987Z,37.93
2019-02-03T08:28:00.780Z,42.80
2019-02-03T08:30:28.480Z,43.07
2019-02-03T08:32:55.897Z,45.80
2019-02-03T08:35:23.246Z,41.53
2019-02-03T08:37:50.486Z,48.03
2019-02-03T08:40:19.214Z,46.53
2019-02-03T08:42:46.640Z,39.73
2019-02-03T08:45:15.759Z,49.13
2019-02-03T08:47:45.348Z,48.73
2019-02-03T08:50:14.858Z,45.00
2019-02-03T08:52:51.282Z,49.60
2019-02-03T08:55:17.997Z,43.00
2019-02-03T08:57:45.418Z,42.43
2019-02-03T09:00:18.112Z,47.90
2019-02-03T09:02:45.443Z,44.40
2019-02-03T09:05:13.237Z,44.43
2019-02-03T09:07:40.690Z,47.77
2019-02-03T09:10:10.618Z,46.90
2019-02-03T09:12:37.959Z,47.10
2019-02-03T09:15:06.731Z,43.80
2019-02-03T09:17:34.006Z,48.00
2019-02-03T09:20:01.349Z,49.30
2019-02-03T09:22:28.625Z,44.87
2019-02-03T09:24:56.287Z,43.57
2019-02-03T09:27:23.556Z,47.43
2019-02-03T09:29:51.545Z,46.33
2019-02-03T09:32:18.908Z,45.23
2019-02-03T09:34:46.186Z,43.50
2019-02-03T09:37:13.529Z,42.47
2019-02-03T09:39:40.928Z,47.37
2019-02-03T09:42:08.256Z,54.30
2019-02-03T09:44:35.499Z,40.30
2019-02-03T09:47:03.194Z,43.53
2019-02-03T09:49:30.622Z,43.07
2019-02-03T09:51:57.857Z,49.10
2019-02-03T09:54:25.102Z,45.63
2019-02-03T09:56:52.771Z,47.33
2019-02-03T09:59:20.044Z,46.70
2019-02-03T10:01:47.420Z,44.33
2019-02-03T10:04:14.728Z,44.20
2019-02-03T10:06:42.072Z,44.97
2019-02-03T10:09:09.582Z,48.60
2019-02-03T10:11:36.932Z,43.70
2019-02-03T10:14:04.722Z,41.93
2019-02-03T10:16:32.157Z,45.00
2019-02-03T10:18:59.537Z,40.87
2019-02-03T10:21:26.857Z,42.87
2019-02-03T10:23:54.295Z,41.87
2019-02-03T10:26:21.547Z,46.37
2019-02-03T10:28:49.588Z,44.20
2019-02-03T10:31:16.943Z,37.73
2019-02-03T10:33:44.290Z,41.60
2019-02-03T10:36:11.665Z,53.27
2019-02-03T10:38:39.016Z,92.37
2019-02-03T10:41:06.360Z,63.30
2019-02-03T10:43:33.756Z,46.17
2019-02-03T10:46:01.518Z,194.17
2019-02-03T10:48:29.941Z,56.53
2019-02-03T10:50:57.295Z,44.80
2019-02-03T10:53:24.670Z,55.13
2019-02-03T10:55:51.935Z,44.43
2019-02-03T10:58:19.201Z,43.53
2019-02-03T11:00:46.659Z,41.97
2019-02-03T11:03:28.441Z,44.67
2019-02-03T11:05:59.313Z,39.77
2019-02-03T11:08:25.863Z,45.30
2019-02-03T11:10:53.229Z,42.17
2019-02-03T11:13:20.968Z,42.63
2019-02-03T11:15:48.726Z,41.57
2019-02-03T11:18:16.460Z,45.73
2019-02-03T11:20:43.976Z,42.27
2019-02-03T11:23:11.337Z,44.13
2019-02-03T11:25:38.703Z,51.23
2019-02-03T11:28:06.282Z,42.07
2019-02-03T11:30:33.660Z,46.40
2019-02-03T11:33:06.446Z,45.60
2019-02-03T11:35:30.632Z,41.20
2019-02-03T11:38:05.113Z,44.43
2019-02-03T11:40:32.888Z,44.33
2019-02-03T11:43:00.293Z,51.67
2019-02-03T11:45:30.166Z,43.87
2019-02-03T11:47:57.711Z,41.30
2019-02-03T11:50:28.053Z,42.17
2019-02-03T11:52:55.292Z,39.83
2019-02-03T11:55:22.623Z,43.30
2019-02-03T11:57:49.988Z,44.37
2019-02-03T12:00:20.031Z,46.33
2019-02-03T12:02:56.751Z,46.23
2019-02-03T12:05:24.095Z,44.13
2019-02-03T12:07:51.352Z,44.53
2019-02-03T12:10:21.463Z,43.77
2019-02-03T12:12:48.819Z,41.73
2019-02-03T12:15:17.175Z,37.70
2019-02-03T12:17:44.435Z,37.17
2019-02-03T12:20:12.258Z,42.93
2019-02-03T12:22:39.656Z,45.47
2019-02-03T12:25:08.435Z,51.43
2019-02-03T12:27:35.717Z,42.20
2019-02-03T12:30:06.640Z,44.17
2019-02-03T12:32:33.888Z,42.97
2019-02-03T12:35:01.126Z,42.10
2019-02-03T12:37:28.460Z,42.77
2019-02-03T12:39:55.727Z,38.70
2019-02-03T12:42:22.981Z,40.47
2019-02-03T12:44:50.379Z,41.57
2019-02-03T12:47:19.281Z,44.50
2019-02-03T12:49:46.771Z,38.10
2019-02-03T12:52:14.060Z,36.93
2019-02-03T12:54:41.323Z,33.10
2019-02-03T12:57:08.588Z,38.23
2019-02-03T12:59:35.849Z,35.90
2019-02-03T13:02:03.321Z,33.63
2019-02-03T13:04:30.589Z,40.10
2019-02-03T13:06:57.944Z,38.93
2019-02-03T13:09:25.197Z,36.10
2019-02-03T13:11:52.549Z,33.73
2019-02-03T13:14:19.812Z,34.97
2019-02-03T13:16:47.158Z,38.47
2019-02-03T13:19:15.710Z,32.07
2019-02-03T13:21:43.486Z,29.30
2019-02-03T13:24:10.882Z,29.20
2019-02-03T13:26:38.146Z,32.90
2019-02-03T13:29:05.511Z,30.93
2019-02-03T13:31:32.769Z,35.17
2019-02-03T13:34:00.160Z,30.73
2019-02-03T13:36:27.419Z,184.03
2019-02-03T13:38:54.678Z,104.70
2019-02-03T13:41:22.060Z,43.47
2019-02-03T13:43:49.330Z,28.73
2019-02-03T13:46:16.655Z,26.73
2019-02-03T13:48:44.789Z,27.17
2019-02-03T13:51:12.187Z,23.70
2019-02-03T13:53:39.475Z,25.83
2019-02-03T13:56:06.823Z,25.20
2019-02-03T13:58:37.095Z,24.70
2019-02-03T14:01:03.451Z,25.73
2019-02-03T14:03:30.791Z,21.23
2019-02-03T14:05:58.026Z,19.77
2019-02-03T14:08:25.797Z,17.30
2019-02-03T14:10:53.243Z,19.40
2019-02-03T14:13:20.619Z,16.37
2019-02-03T14:15:47.960Z,13.00
2019-02-03T14:18:15.328Z,13.97
2019-02-03T14:20:42.582Z,13.83
2019-02-03T14:23:10.447Z,15.53
2019-02-03T14:25:37.691Z,18.73
2019-02-03T14:28:05.186Z,14.17
2019-02-03T14:30:51.373Z,17.07
2019-02-03T14:33:18.886Z,14.30
2019-02-03T14:35:46.592Z,11.70
2019-02-03T14:38:13.946Z,12.93
2019-02-03T14:40:41.299Z,18.37
2019-02-03T14:43:08.632Z,13.60
2019-02-03T14:45:35.972Z,12.97
2019-02-03T14:48:03.560Z,14.23
2019-02-03T14:50:30.856Z,9.83
2019-02-03T14:52:59.351Z,11.97
2019-02-03T14:55:28.989Z,11.83
2019-02-03T14:57:56.246Z,14.57
2019-02-03T15:00:34.899Z,13.90
2019-02-03T15:03:05.792Z,12.03
2019-02-03T15:05:33.112Z,12.53
2019-02-03T15:08:00.423Z,14.93
2019-02-03T15:10:30.262Z,12.50
2019-02-03T15:12:57.099Z,14.97
2019-02-03T15:15:24.384Z,14.77
2019-02-03T15:17:51.781Z,10.93
2019-02-03T15:20:20.292Z,8.30
2019-02-03T15:22:47.552Z,6.87
2019-02-03T15:25:14.891Z,8.00
2019-02-03T15:27:42.159Z,8.17
2019-02-03T15:30:19.722Z,7.80
2019-02-03T15:32:46.770Z,8.77
2019-02-03T15:35:14.342Z,8.13
2019-02-03T15:37:41.602Z,11.60
2019-02-03T15:40:10.151Z,8.50
2019-02-03T15:42:37.500Z,5.50
2019-02-03T15:45:06.389Z,5.13
2019-02-03T15:47:34.067Z,5.00
2019-02-03T15:50:01.321Z,5.63
2019-02-03T15:52:28.580Z,7.50
2019-02-03T15:54:55.868Z,3.50
2019-02-03T15:57:23.108Z,5.77
2019-02-03T15:59:50.425Z,5.83
2019-02-03T16:02:17.791Z,3.97
2019-02-03T16:04:45.355Z,4.53
2019-02-03T16:07:12.700Z,6.20
2019-02-03T16:09:40.049Z,7.47
2019-02-03T16:12:07.407Z,7.40
2019-02-03T16:14:34.818Z,4.67
2019-02-03T16:17:02.143Z,74.67
2019-02-03T16:19:29.822Z,10.70
2019-02-03T16:21:57.127Z,5.07
2019-02-03T16:24:24.386Z,4.90
2019-02-03T16:26:51.718Z,6.33
2019-02-03T16:29:18.967Z,6.40
2019-02-03T16:31:46.223Z,7.00
2019-02-03T16:34:13.474Z,8.53
2019-02-03T16:36:41.854Z,4.03
2019-02-03T16:39:09.289Z,3.30
2019-02-03T16:41:36.567Z,4.03
2019-02-03T16:44:04.451Z,2.17
2019-02-03T16:46:31.676Z,3.67
2019-02-03T16:49:00.781Z,4.37
2019-02-03T16:51:28.251Z,2.03
2019-02-03T16:53:55.631Z,2.70
2019-02-03T16:56:22.951Z,1.97
2019-02-03T16:58:50.299Z,5.17
2019-02-03T17:01:17.545Z,123.50
2019-02-03T17:03:44.885Z,82.87
2019-02-03T17:06:12.212Z,44.23
2019-02-03T17:08:39.481Z,44.47
2019-02-03T17:11:06.955Z,17.37
2019-02-03T17:13:34.307Z,28.60
2019-02-03T17:16:01.674Z,45.60
2019-02-03T17:18:28.943Z,31.63
2019-02-03T17:21:01.945Z,15.57
2019-02-03T17:23:25.510Z,6.67
2019-02-03T17:25:59.672Z,3.57
2019-02-03T17:28:27.062Z,3.30
2019-02-03T17:30:54.316Z,7.37
2019-02-03T17:33:21.656Z,4.70
2019-02-03T17:35:54.428Z,3.50
2019-02-03T17:38:18.493Z,4.50
2019-02-03T17:40:46.216Z,3.07
2019-02-03T17:43:29.329Z,4.90
2019-02-03T17:45:56.758Z,4.03
2019-02-03T17:48:24.243Z,5.80
2019-02-03T17:50:51.838Z,6.67
2019-02-03T17:53:19.743Z,11.23
2019-02-03T17:55:47.127Z,12.17
2019-02-03T17:58:14.837Z,7.60
2019-02-03T18:01:03.225Z,7.10
2019-02-03T18:03:33.293Z,8.00
2019-02-03T18:06:00.759Z,5.57
2019-02-03T18:09:36.727Z,8.40
2019-02-03T18:12:19.430Z,8.73
2019-02-03T18:14:46.766Z,6.30
2019-02-03T18:17:14.088Z,6.70
2019-02-03T18:19:41.752Z,6.47
2019-02-03T18:22:09.381Z,6.17
2019-02-03T18:24:46.143Z,7.97
2019-02-03T18:27:27.473Z,11.47
2019-02-03T18:29:55.836Z,10.17
2019-02-03T18:32:23.148Z,7.03
2019-02-03T18:35:08.836Z,6.13
2019-02-03T18:38:18.576Z,6.70
2019-02-03T18:40:45.927Z,4.07
2019-02-03T18:43:13.155Z,4.97
2019-02-03T18:45:40.452Z,5.60
2019-02-03T18:48:07.684Z,4.13
2019-02-03T18:50:36.693Z,5.63
2019-02-03T18:53:30.475Z,4.43
2019-02-03T18:56:12.432Z,6.67
2019-02-03T18:59:08.152Z,6.63
2019-02-03T19:02:02.468Z,17.43
2019-02-03T19:04:33.862Z,45.47
2019-02-03T19:07:25.344Z,34.77
2019-02-03T19:09:56.428Z,48.77
2019-02-03T19:12:24.193Z,41.83
2019-02-03T19:14:56.085Z,17.10
2019-02-03T19:18:22.537Z,16.10
2019-02-03T19:20:50.717Z,13.10
2019-02-03T19:27:24.911Z,10.33
2019-02-03T19:29:52.721Z,6.87
2019-02-03T19:32:27.320Z,6.27
2019-02-03T19:34:59.656Z,7.00
2019-02-03T19:37:30.637Z,11.53
2019-02-03T19:40:00.667Z,7.37
2019-02-03T19:42:56.505Z,4.70
2019-02-03T19:45:25.314Z,5.30
2019-02-03T19:47:57.642Z,5.43
2019-02-03T19:50:27.808Z,6.60
2019-02-03T19:52:55.531Z,6.33
2019-02-03T19:55:25.859Z,7.13
2019-02-03T19:57:53.144Z,6.37
2019-02-03T20:00:23.409Z,5.50
2019-02-03T20:02:50.963Z,5.47
2019-02-03T20:05:18.360Z,7.40
2019-02-03T20:07:46.655Z,4.93
2019-02-03T20:10:16.657Z,4.10
2019-02-03T20:12:44.017Z,4.97
2019-02-03T20:15:12.938Z,9.20
2019-02-03T20:17:40.295Z,7.97
2019-02-03T20:20:10.961Z,11.60
2019-02-03T20:22:38.376Z,8.37
2019-02-03T20:25:07.424Z,6.03
2019-02-03T20:27:34.647Z,12.10
2019-02-03T20:30:02.391Z,9.63
2019-02-03T20:32:30.204Z,12.83
2019-02-03T20:34:57.958Z,8.80
2019-02-03T20:37:26.223Z,9.53
2019-02-03T20:40:34.383Z,7.27
2019-02-03T20:43:01.732Z,7.07
2019-02-03T20:49:22.603Z,10.07
2019-02-03T20:52:42.129Z,11.67
2019-02-03T20:55:10.028Z,13.47
2019-02-03T20:57:37.573Z,12.87
2019-02-03T21:00:08.280Z,15.57
2019-02-03T21:02:35.559Z,13.80
2019-02-03T21:05:03.883Z,23.23
2019-02-03T21:07:31.379Z,24.53
2019-02-03T21:09:59.023Z,25.07
2019-02-03T21:12:26.834Z,24.20
2019-02-03T21:14:54.325Z,22.87
2019-02-03T21:17:22.133Z,23.13
2019-02-03T21:19:49.515Z,24.47
2019-02-03T21:22:17.970Z,20.27
2019-02-03T21:24:45.221Z,20.17
2019-02-03T21:27:13.017Z,31.83
2019-02-03T21:29:40.362Z,40.97
2019-02-03T21:32:30.165Z,40.40
2019-02-03T21:34:57.952Z,32.93
2019-02-03T21:37:25.555Z,23.20
2019-02-03T21:39:53.099Z,18.90
2019-02-03T21:42:20.397Z,13.73
2019-02-03T21:44:47.781Z,9.37
2019-02-03T21:47:15.164Z,13.83
2019-02-03T21:49:42.508Z,18.03
2019-02-03T21:52:09.767Z,12.67
2019-02-03T21:54:37.111Z,10.30
2019-02-03T21:57:05.508Z,14.60
2019-02-03T21:59:32.872Z,12.07
2019-02-03T22:02:00.236Z,11.63
2019-02-03T22:04:27.557Z,12.43
2019-02-03T22:06:54.854Z,10.73
2019-02-03T22:09:22.220Z,10.40
2019-02-03T22:11:50.212Z,15.87
2019-02-03T22:14:17.717Z,11.80
2019-02-03T22:16:45.045Z,14.80
2019-02-03T22:19:12.336Z,14.40
2019-02-03T22:21:39.675Z,12.73
2019-02-03T22:24:07.207Z,14.63
2019-02-03T22:26:34.745Z,15.30
2019-02-03T22:29:03.292Z,13.30
2019-02-03T22:31:30.823Z,15.10
2019-02-03T22:33:58.081Z,16.20
2019-02-03T22:36:25.340Z,15.67
2019-02-03T22:38:52.615Z,18.20
2019-02-03T22:41:19.838Z,16.60
2019-02-03T22:43:47.908Z,14.57
2019-02-03T22:46:15.173Z,13.60
2019-02-03T22:48:42.414Z,18.87
2019-02-03T22:51:09.842Z,15.60
2019-02-03T22:53:37.184Z,15.73
2019-02-03T22:56:04.448Z,15.57
2019-02-03T22:58:31.823Z,11.70
2019-02-03T23:01:12.570Z,18.53
2019-02-03T23:03:51.386Z,13.70
2019-02-03T23:06:18.660Z,18.30
2019-02-03T23:08:46.050Z,12.73
2019-02-03T23:11:13.702Z,13.37
2019-02-03T23:13:40.972Z,18.00
2019-02-03T23:16:18.000Z,14.47
2019-02-03T23:18:37.593Z,12.30
2019-02-03T23:21:04.852Z,16.73
2019-02-03T23:23:32.103Z,13.73
2019-02-03T23:25:59.474Z,11.27
2019-02-03T23:28:26.803Z,12.87
2019-02-03T23:30:54.063Z,13.67
2019-02-03T23:33:21.321Z,14.73
2019-02-03T23:35:48.669Z,17.20
2019-02-03T23:38:15.898Z,13.70
2019-02-03T23:40:43.144Z,14.60
2019-02-03T23:43:10.413Z,17.47
2019-02-03T23:45:37.743Z,11.87
2019-02-03T23:48:05.781Z,15.43
2019-02-03T23:50:33.127Z,11.90
2019-02-03T23:53:00.466Z,15.23
2019-02-03T23:55:27.820Z,14.63
2019-02-03T23:57:55.159Z,12.43
